Aviation Digital Data Service (ADDS)

Output produced by METARs form (1212 UTC 24 March 2017)
found at http://www.aviationweather.gov/adds/metars/
 
METAR text: KTAZ 241155Z AUTO 19006KT 10SM CLR 09/07 A3003 RMK AO2
Conditions at: KTAZ (TAYLORVILLE , IL, US) observed 1155 UTC 24 March 2017
Temperature: 9.0°C (48°F)
Dewpoint: 7.0°C (45°F) [RH = 87%]
Pressure (altimeter): 30.03 inches Hg (1017.0 mb)
Winds: from the S (190 degrees) at 7 MPH (6 knots; 3.1 m/s)
Visibility: 10 or more miles (16+ km)
Ceiling: at least 12,000 feet AGL
Clouds: sky clear below 12,000 feet AGL
Weather: automated observation with no human augmentation;
there may or may not be significant weather present at this time